Aviation Digital Data Service (ADDS)

Output produced by METARs form (0745 UTC 25 October 2014)
found at http://www.aviationweather.gov/adds/metars/
 
METAR text: KSBP 250656Z AUTO 09003KT 10SM CLR 14/13 A3002 RMK AO2 SLP163 T01440128
Conditions at: KSBP (SAN LUIS OBISPO , CA, US) observed 0656 UTC 25 October 2014
Temperature: 14.4°C (58°F)
Dewpoint: 12.8°C (55°F) [RH = 90%]
Pressure (altimeter): 30.02 inches Hg (1016.7 mb)
[Sea-level pressure: 1016.3 mb]
Winds: from the E (90 degrees) at 3 MPH (3 knots; 1.6 m/s)
Visibility: 10 or more miles (16+ km)
Ceiling: at least 12,000 feet AGL
Clouds: sky clear below 12,000 feet AGL
Weather: automated observation with no human augmentation;
there may or may not be significant weather present at this time

METAR text: KSBP 250641Z AUTO 11005KT 10SM SCT016 14/12 A3001 RMK AO2 T01390122
Conditions at: KSBP (SAN LUIS OBISPO , CA, US) observed 0641 UTC 25 October 2014
Temperature: 13.9°C (57°F)
Dewpoint: 12.2°C (54°F) [RH = 89%]
Pressure (altimeter): 30.01 inches Hg (1016.3 mb)
Winds: from the ESE (110 degrees) at 6 MPH (5 knots; 2.6 m/s)
Visibility: 10 or more miles (16+ km)
Ceiling: at least 12,000 feet AGL
Clouds: scattered clouds at 1600 feet AGL
Weather: automated observation with no human augmentation;
there may or may not be significant weather present at this time

METAR text: KSBP 250556Z AUTO 00000KT 10SM BKN016 14/12 A3001 RMK AO2 SLP162 T01390117 10222 20139 51012
Conditions at: KSBP (SAN LUIS OBISPO , CA, US) observed 0556 UTC 25 October 2014
Temperature: 13.9°C (57°F)
Dewpoint: 11.7°C (53°F) [RH = 87%]
Pressure (altimeter): 30.01 inches Hg (1016.3 mb)
[Sea-level pressure: 1016.2 mb]
Winds: calm
Visibility: 10 or more miles (16+ km)
Ceiling: 1600 feet AGL
Clouds: broken clouds at 1600 feet AGL
Weather: automated observation with no human augmentation;
there may or may not be significant weather present at this time

METAR text: KSBP 250456Z AUTO 00000KT 10SM OVC015 14/12 A3001 RMK AO2 SLP162 T01440122
Conditions at: KSBP (SAN LUIS OBISPO , CA, US) observed 0456 UTC 25 October 2014
Temperature: 14.4°C (58°F)
Dewpoint: 12.2°C (54°F) [RH = 87%]
Pressure (altimeter): 30.01 inches Hg (1016.3 mb)
[Sea-level pressure: 1016.2 mb]
Winds: calm
Visibility: 10 or more miles (16+ km)
Ceiling: 1500 feet AGL
Clouds: overcast cloud deck at 1500 feet AGL
Weather: automated observation with no human augmentation;
there may or may not be significant weather present at this time

METAR text: KSBP 250420Z AUTO 00000KT 10SM BKN015 15/13 A3000 RMK AO2 T01500128
Conditions at: KSBP (SAN LUIS OBISPO , CA, US) observed 0420 UTC 25 October 2014
Temperature: 15.0°C (59°F)
Dewpoint: 12.8°C (55°F) [RH = 87%]
Pressure (altimeter): 30.00 inches Hg (1016.0 mb)
Winds: calm
Visibility: 10 or more miles (16+ km)
Ceiling: 1500 feet AGL
Clouds: broken clouds at 1500 feet AGL
Weather: automated observation with no human augmentation;
there may or may not be significant weather present at this time

METAR text: KSBP 250356Z AUTO 32003KT 10SM CLR 15/13 A2999 RMK AO2 SLP154 T01500133
Conditions at: KSBP (SAN LUIS OBISPO , CA, US) observed 0356 UTC 25 October 2014
Temperature: 15.0°C (59°F)
Dewpoint: 13.3°C (56°F) [RH = 90%]
Pressure (altimeter): 29.99 inches Hg (1015.7 mb)
[Sea-level pressure: 1015.4 mb]
Winds: from the NW (320 degrees) at 3 MPH (3 knots; 1.6 m/s)
Visibility: 10 or more miles (16+ km)
Ceiling: at least 12,000 feet AGL
Clouds: sky clear below 12,000 feet AGL
Weather: automated observation with no human augmentation;
there may or may not be significant weather present at this time

METAR text: KSBP 250256Z 33008KT 10SM CLR 16/14 A2998 RMK AO2 SLP150 T01560139 53015
Conditions at: KSBP (SAN LUIS OBISPO , CA, US) observed 0256 UTC 25 October 2014
Temperature: 15.6°C (60°F)
Dewpoint: 13.9°C (57°F) [RH = 90%]
Pressure (altimeter): 29.98 inches Hg (1015.3 mb)
[Sea-level pressure: 1015.0 mb]
Winds: from the NNW (330 degrees) at 9 MPH (8 knots; 4.2 m/s)
Visibility: 10 or more miles (16+ km)
Ceiling: at least 12,000 feet AGL
Clouds: sky clear below 12,000 feet AGL
Weather: no significant weather observed at this time

METAR text: KSBP 250156Z 32007KT 10SM CLR 16/14 A2996 RMK AO2 SLP144 T01610139
Conditions at: KSBP (SAN LUIS OBISPO , CA, US) observed 0156 UTC 25 October 2014
Temperature: 16.1°C (61°F)
Dewpoint: 13.9°C (57°F) [RH = 87%]
Pressure (altimeter): 29.96 inches Hg (1014.6 mb)
[Sea-level pressure: 1014.4 mb]
Winds: from the NW (320 degrees) at 8 MPH (7 knots; 3.6 m/s)
Visibility: 10 or more miles (16+ km)
Ceiling: at least 12,000 feet AGL
Clouds: sky clear below 12,000 feet AGL
Weather: no significant weather observed at this time

METAR text: KSBP 250056Z 31008KT 10SM CLR 18/14 A2994 RMK AO2 SLP137 T01830139
Conditions at: KSBP (SAN LUIS OBISPO , CA, US) observed 0056 UTC 25 October 2014
Temperature: 18.3°C (65°F)
Dewpoint: 13.9°C (57°F) [RH = 76%]
Pressure (altimeter): 29.94 inches Hg (1014.0 mb)
[Sea-level pressure: 1013.7 mb]
Winds: from the NW (310 degrees) at 9 MPH (8 knots; 4.2 m/s)
Visibility: 10 or more miles (16+ km)
Ceiling: at least 12,000 feet AGL
Clouds: sky clear below 12,000 feet AGL
Weather: no significant weather observed at this time

METAR text: KSBP 242356Z 22007KT 10SM CLR 22/11 A2993 RMK AO2 SLP134 T02220106 10256 20144 56002
Conditions at: KSBP (SAN LUIS OBISPO , CA, US) observed 2356 UTC 24 October 2014
Temperature: 22.2°C (72°F)
Dewpoint: 10.6°C (51°F) [RH = 48%]
Pressure (altimeter): 29.93 inches Hg (1013.6 mb)
[Sea-level pressure: 1013.4 mb]
Winds: from the SW (220 degrees) at 8 MPH (7 knots; 3.6 m/s)
Visibility: 10 or more miles (16+ km)
Ceiling: at least 12,000 feet AGL
Clouds: sky clear below 12,000 feet AGL
Weather: no significant weather observed at this time